sensor_id;sensor_type;location;lat;lon;timestamp;P1;durP1;ratioP1;P2;durP2;ratioP2
6215;SDS011;3141;49.234;9.326;2022-10-17T00:00:21;1.07;;;0.93;;
6215;SDS011;3141;49.234;9.326;2022-10-17T00:01:04;1.07;;;0.80;;
6215;SDS011;3141;49.234;9.326;2022-10-17T00:01:47;0.52;;;0.52;;
6215;SDS011;3141;49.234;9.326;2022-10-17T00:02:30;0.60;;;0.60;;
6215;SDS011;3141;49.234;9.326;2022-10-17T00:03:12;0.90;;;0.90;;
6215;SDS011;3141;49.234;9.326;2022-10-17T00:03:55;0.60;;;0.60;;
6215;SDS011;3141;49.234;9.326;2022-10-17T00:04:37;0.73;;;0.60;;
6215;SDS011;3141;49.234;9.326;2022-10-17T00:05:20;0.57;;;0.57;;
6215;SDS011;3141;49.234;9.326;2022-10-17T00:06:12;0.77;;;0.77;;
6215;SDS011;3141;49.234;9.326;2022-10-17T00:06:56;1.77;;;0.80;;
6215;SDS011;3141;49.234;9.326;2022-10-17T00:07:38;0.83;;;0.70;;
6215;SDS011;3141;49.234;9.326;2022-10-17T00:08:20;0.40;;;0.40;;
6215;SDS011;3141;49.234;9.326;2022-10-17T00:09:03;1.53;;;1.13;;
6215;SDS011;3141;49.234;9.326;2022-10-17T00:09:45;0.90;;;0.57;;
6215;SDS011;3141;49.234;9.326;2022-10-17T00:10:27;1.87;;;1.17;;
6215;SDS011;3141;49.234;9.326;2022-10-17T00:11:14;0.57;;;0.57;;
6215;SDS011;3141;49.234;9.326;2022-10-17T00:12:02;10.23;;;0.95;;
6215;SDS011;3141;49.234;9.326;2022-10-17T00:12:44;0.50;;;0.50;;
6215;SDS011;3141;49.234;9.326;2022-10-17T00:13:27;7.43;;;1.17;;
6215;SDS011;3141;49.234;9.326;2022-10-17T00:14:09;0.63;;;0.63;;
6215;SDS011;3141;49.234;9.326;2022-10-17T00:14:52;0.53;;;0.53;;
6215;SDS011;3141;49.234;9.326;2022-10-17T00:15:34;0.67;;;0.67;;
6215;SDS011;3141;49.234;9.326;2022-10-17T00:16:26;1.20;;;1.10;;
6215;SDS011;3141;49.234;9.326;2022-10-17T00:17:14;1.65;;;0.90;;
6215;SDS011;3141;49.234;9.326;2022-10-17T00:17:57;0.97;;;0.70;;
6215;SDS011;3141;49.234;9.326;2022-10-17T00:18:39;0.80;;;0.80;;
6215;SDS011;3141;49.234;9.326;2022-10-17T00:19:22;0.70;;;0.70;;
6215;SDS011;3141;49.234;9.326;2022-10-17T00:20:04;0.97;;;0.97;;
6215;SDS011;3141;49.234;9.326;2022-10-17T00:20:47;0.70;;;0.70;;
6215;SDS011;3141;49.234;9.326;2022-10-17T00:21:29;1.27;;;0.80;;
6215;SDS011;3141;49.234;9.326;2022-10-17T00:22:12;0.40;;;0.40;;
6215;SDS011;3141;49.234;9.326;2022-10-17T00:22:54;0.60;;;0.60;;
6215;SDS011;3141;49.234;9.326;2022-10-17T00:23:37;2.27;;;0.70;;
6215;SDS011;3141;49.234;9.326;2022-10-17T00:24:19;1.27;;;0.83;;
6215;SDS011;3141;49.234;9.326;2022-10-17T00:25:02;0.60;;;0.57;;
6215;SDS011;3141;49.234;9.326;2022-10-17T00:25:44;1.27;;;0.80;;
6215;SDS011;3141;49.234;9.326;2022-10-17T00:26:27;1.03;;;0.93;;
6215;SDS011;3141;49.234;9.326;2022-10-17T00:27:10;0.82;;;0.82;;
6215;SDS011;3141;49.234;9.326;2022-10-17T00:27:53;0.67;;;0.67;;
6215;SDS011;3141;49.234;9.326;2022-10-17T00:28:35;2.07;;;1.10;;
6215;SDS011;3141;49.234;9.326;2022-10-17T00:29:17;0.60;;;0.60;;
6215;SDS011;3141;49.234;9.326;2022-10-17T00:30:00;7.33;;;0.77;;
6215;SDS011;3141;49.234;9.326;2022-10-17T00:30:42;0.90;;;0.90;;
6215;SDS011;3141;49.234;9.326;2022-10-17T00:31:24;1.00;;;1.00;;
6215;SDS011;3141;49.234;9.326;2022-10-17T00:32:07;0.80;;;0.80;;
6215;SDS011;3141;49.234;9.326;2022-10-17T00:32:49;0.50;;;0.50;;
6215;SDS011;3141;49.234;9.326;2022-10-17T00:33:32;0.43;;;0.43;;
6215;SDS011;3141;49.234;9.326;2022-10-17T00:34:15;0.80;;;0.75;;
6215;SDS011;3141;49.234;9.326;2022-10-17T00:34:58;0.57;;;0.57;;
6215;SDS011;3141;49.234;9.326;2022-10-17T00:35:40;1.03;;;0.73;;
6215;SDS011;3141;49.234;9.326;2022-10-17T00:36:24;0.73;;;0.73;;
6215;SDS011;3141;49.234;9.326;2022-10-17T00:37:07;1.08;;;1.00;;
6215;SDS011;3141;49.234;9.326;2022-10-17T00:37:49;0.73;;;0.73;;
6215;SDS011;3141;49.234;9.326;2022-10-17T00:38:32;1.13;;;0.90;;
6215;SDS011;3141;49.234;9.326;2022-10-17T00:39:14;1.20;;;1.13;;
6215;SDS011;3141;49.234;9.326;2022-10-17T00:39:57;0.90;;;0.90;;
6215;SDS011;3141;49.234;9.326;2022-10-17T00:40:39;6.57;;;1.30;;
6215;SDS011;3141;49.234;9.326;2022-10-17T00:41:23;2.00;;;0.70;;
6215;SDS011;3141;49.234;9.326;2022-10-17T00:42:09;1.63;;;0.93;;
6215;SDS011;3141;49.234;9.326;2022-10-17T00:42:54;1.50;;;1.23;;
6215;SDS011;3141;49.234;9.326;2022-10-17T00:45:21;0.93;;;0.40;;
6215;SDS011;3141;49.234;9.326;2022-10-17T00:46:07;1.33;;;0.77;;
6215;SDS011;3141;49.234;9.326;2022-10-17T00:46:50;8.13;;;0.50;;
6215;SDS011;3141;49.234;9.326;2022-10-17T00:47:32;6.83;;;0.80;;
6215;SDS011;3141;49.234;9.326;2022-10-17T00:48:17;0.60;;;0.60;;
6215;SDS011;3141;49.234;9.326;2022-10-17T00:49:02;0.57;;;0.57;;
6215;SDS011;3141;49.234;9.326;2022-10-17T00:49:47;0.55;;;0.55;;
6215;SDS011;3141;49.234;9.326;2022-10-17T00:50:30;0.60;;;0.60;;
6215;SDS011;3141;49.234;9.326;2022-10-17T00:51:13;0.70;;;0.70;;
6215;SDS011;3141;49.234;9.326;2022-10-17T00:51:56;0.83;;;0.80;;
6215;SDS011;3141;49.234;9.326;2022-10-17T00:52:42;7.63;;;1.00;;
6215;SDS011;3141;49.234;9.326;2022-10-17T00:53:26;0.73;;;0.63;;
6215;SDS011;3141;49.234;9.326;2022-10-17T00:54:09;0.73;;;0.73;;
6215;SDS011;3141;49.234;9.326;2022-10-17T00:54:55;1.92;;;1.30;;
6215;SDS011;3141;49.234;9.326;2022-10-17T00:55:47;0.55;;;0.55;;
6215;SDS011;3141;49.234;9.326;2022-10-17T00:56:32;1.27;;;0.80;;
6215;SDS011;3141;49.234;9.326;2022-10-17T00:57:15;0.50;;;0.50;;
6215;SDS011;3141;49.234;9.326;2022-10-17T00:57:59;0.88;;;0.85;;
6215;SDS011;3141;49.234;9.326;2022-10-17T00:58:43;0.77;;;0.77;;
6215;SDS011;3141;49.234;9.326;2022-10-17T00:59:25;1.00;;;1.00;;
6215;SDS011;3141;49.234;9.326;2022-10-17T01:00:09;0.50;;;0.50;;
6215;SDS011;3141;49.234;9.326;2022-10-17T01:00:52;0.47;;;0.47;;
6215;SDS011;3141;49.234;9.326;2022-10-17T01:01:34;0.90;;;0.90;;
6215;SDS011;3141;49.234;9.326;2022-10-17T01:02:18;0.77;;;0.77;;
6215;SDS011;3141;49.234;9.326;2022-10-17T01:03:02;1.42;;;1.02;;
6215;SDS011;3141;49.234;9.326;2022-10-17T01:03:44;0.67;;;0.67;;
6215;SDS011;3141;49.234;9.326;2022-10-17T01:04:27;0.73;;;0.73;;
6215;SDS011;3141;49.234;9.326;2022-10-17T01:05:09;1.00;;;1.00;;
6215;SDS011;3141;49.234;9.326;2022-10-17T01:05:52;0.50;;;0.50;;
6215;SDS011;3141;49.234;9.326;2022-10-17T01:06:35;0.43;;;0.43;;
6215;SDS011;3141;49.234;9.326;2022-10-17T01:07:17;0.77;;;0.77;;
6215;SDS011;3141;49.234;9.326;2022-10-17T01:08:00;4.93;;;1.20;;
6215;SDS011;3141;49.234;9.326;2022-10-17T01:08:43;0.68;;;0.68;;
6215;SDS011;3141;49.234;9.326;2022-10-17T01:09:26;0.50;;;0.50;;
6215;SDS011;3141;49.234;9.326;2022-10-17T01:10:08;0.50;;;0.50;;
6215;SDS011;3141;49.234;9.326;2022-10-17T01:13:52;0.60;;;0.60;;
6215;SDS011;3141;49.234;9.326;2022-10-17T01:15:51;1.48;;;0.95;;
6215;SDS011;3141;49.234;9.326;2022-10-17T01:16:53;1.02;;;0.70;;
6215;SDS011;3141;49.234;9.326;2022-10-17T01:19:22;0.40;;;0.40;;
6215;SDS011;3141;49.234;9.326;2022-10-17T01:22:26;2.05;;;0.60;;
6215;SDS011;3141;49.234;9.326;2022-10-17T01:23:23;0.73;;;0.73;;
6215;SDS011;3141;49.234;9.326;2022-10-17T01:29:31;0.57;;;0.57;;
6215;SDS011;3141;49.234;9.326;2022-10-17T01:31:13;0.55;;;0.55;;
6215;SDS011;3141;49.234;9.326;2022-10-17T01:32:07;0.77;;;0.77;;
6215;SDS011;3141;49.234;9.326;2022-10-17T01:32:57;1.02;;;1.02;;
6215;SDS011;3141;49.234;9.326;2022-10-17T01:33:46;1.10;;;1.10;;
6215;SDS011;3141;49.234;9.326;2022-10-17T01:35:38;0.60;;;0.60;;
6215;SDS011;3141;49.234;9.326;2022-10-17T01:36:19;0.40;;;0.40;;
6215;SDS011;3141;49.234;9.326;2022-10-17T01:37:36;0.63;;;0.63;;
6215;SDS011;3141;49.234;9.326;2022-10-17T01:38:35;0.60;;;0.60;;
6215;SDS011;3141;49.234;9.326;2022-10-17T01:40:15;0.68;;;0.60;;
6215;SDS011;3141;49.234;9.326;2022-10-17T01:41:10;4.63;;;2.15;;
6215;SDS011;3141;49.234;9.326;2022-10-17T01:42:17;1.05;;;0.88;;
6215;SDS011;3141;49.234;9.326;2022-10-17T01:43:05;2.40;;;0.75;;
6215;SDS011;3141;49.234;9.326;2022-10-17T01:43:58;0.75;;;0.75;;
6215;SDS011;3141;49.234;9.326;2022-10-17T01:44:54;0.80;;;0.80;;
6215;SDS011;3141;49.234;9.326;2022-10-17T01:45:57;1.48;;;0.77;;
6215;SDS011;3141;49.234;9.326;2022-10-17T01:46:45;0.50;;;0.50;;
6215;SDS011;3141;49.234;9.326;2022-10-17T01:47:31;0.45;;;0.45;;
6215;SDS011;3141;49.234;9.326;2022-10-17T01:48:21;1.10;;;1.10;;
6215;SDS011;3141;49.234;9.326;2022-10-17T01:49:07;0.75;;;0.75;;
6215;SDS011;3141;49.234;9.326;2022-10-17T01:49:52;0.93;;;0.93;;
6215;SDS011;3141;49.234;9.326;2022-10-17T01:50:40;0.57;;;0.57;;
6215;SDS011;3141;49.234;9.326;2022-10-17T01:51:28;0.60;;;0.60;;
6215;SDS011;3141;49.234;9.326;2022-10-17T01:52:21;9.10;;;1.05;;
6215;SDS011;3141;49.234;9.326;2022-10-17T01:53:09;0.30;;;0.30;;
6215;SDS011;3141;49.234;9.326;2022-10-17T01:55:06;0.60;;;0.60;;
6215;SDS011;3141;49.234;9.326;2022-10-17T01:55:52;0.60;;;0.55;;
6215;SDS011;3141;49.234;9.326;2022-10-17T01:56:37;0.77;;;0.77;;
6215;SDS011;3141;49.234;9.326;2022-10-17T01:57:25;0.70;;;0.70;;
6215;SDS011;3141;49.234;9.326;2022-10-17T01:58:13;0.57;;;0.57;;
6215;SDS011;3141;49.234;9.326;2022-10-17T01:59:18;0.40;;;0.40;;
6215;SDS011;3141;49.234;9.326;2022-10-17T02:00:04;0.40;;;0.40;;
6215;SDS011;3141;49.234;9.326;2022-10-17T02:00:50;0.80;;;0.80;;
6215;SDS011;3141;49.234;9.326;2022-10-17T02:01:34;4.22;;;1.00;;
6215;SDS011;3141;49.234;9.326;2022-10-17T02:02:19;0.57;;;0.57;;
6215;SDS011;3141;49.234;9.326;2022-10-17T02:03:05;0.70;;;0.70;;
6215;SDS011;3141;49.234;9.326;2022-10-17T02:03:50;1.25;;;0.93;;
6215;SDS011;3141;49.234;9.326;2022-10-17T02:04:34;3.80;;;0.90;;
6215;SDS011;3141;49.234;9.326;2022-10-17T02:05:17;13.80;;;1.45;;
6215;SDS011;3141;49.234;9.326;2022-10-17T02:06:05;0.60;;;0.60;;
6215;SDS011;3141;49.234;9.326;2022-10-17T02:06:47;0.53;;;0.53;;
6215;SDS011;3141;49.234;9.326;2022-10-17T02:07:30;0.60;;;0.60;;
6215;SDS011;3141;49.234;9.326;2022-10-17T02:08:12;1.13;;;0.80;;
6215;SDS011;3141;49.234;9.326;2022-10-17T02:08:55;0.70;;;0.70;;
6215;SDS011;3141;49.234;9.326;2022-10-17T02:09:37;0.47;;;0.47;;
6215;SDS011;3141;49.234;9.326;2022-10-17T02:10:24;0.60;;;0.60;;
6215;SDS011;3141;49.234;9.326;2022-10-17T02:11:17;1.30;;;0.60;;
6215;SDS011;3141;49.234;9.326;2022-10-17T02:13:08;4.75;;;0.82;;
6215;SDS011;3141;49.234;9.326;2022-10-17T02:14:17;0.80;;;0.70;;
6215;SDS011;3141;49.234;9.326;2022-10-17T02:16:07;1.10;;;1.10;;
6215;SDS011;3141;49.234;9.326;2022-10-17T02:17:03;0.63;;;0.60;;
6215;SDS011;3141;49.234;9.326;2022-10-17T02:20:23;0.50;;;0.50;;
6215;SDS011;3141;49.234;9.326;2022-10-17T02:22:39;0.50;;;0.50;;
6215;SDS011;3141;49.234;9.326;2022-10-17T02:23:30;0.50;;;0.50;;
6215;SDS011;3141;49.234;9.326;2022-10-17T02:24:28;0.50;;;0.50;;
6215;SDS011;3141;49.234;9.326;2022-10-17T02:26:33;0.63;;;0.63;;
6215;SDS011;3141;49.234;9.326;2022-10-17T02:27:51;0.55;;;0.55;;
6215;SDS011;3141;49.234;9.326;2022-10-17T02:30:07;0.98;;;0.75;;
6215;SDS011;3141;49.234;9.326;2022-10-17T02:31:03;1.73;;;0.85;;
6215;SDS011;3141;49.234;9.326;2022-10-17T02:31:58;0.80;;;0.80;;
6215;SDS011;3141;49.234;9.326;2022-10-17T02:33:38;1.85;;;0.70;;
6215;SDS011;3141;49.234;9.326;2022-10-17T02:34:41;0.80;;;0.80;;
6215;SDS011;3141;49.234;9.326;2022-10-17T02:35:29;0.80;;;0.80;;
6215;SDS011;3141;49.234;9.326;2022-10-17T02:36:17;4.80;;;0.70;;
6215;SDS011;3141;49.234;9.326;2022-10-17T02:37:04;1.00;;;1.00;;
6215;SDS011;3141;49.234;9.326;2022-10-17T02:37:48;1.10;;;1.10;;
6215;SDS011;3141;49.234;9.326;2022-10-17T02:38:32;7.25;;;0.80;;
6215;SDS011;3141;49.234;9.326;2022-10-17T02:39:16;0.98;;;0.90;;
6215;SDS011;3141;49.234;9.326;2022-10-17T02:40:02;7.03;;;1.00;;
6215;SDS011;3141;49.234;9.326;2022-10-17T02:40:47;0.90;;;0.90;;
6215;SDS011;3141;49.234;9.326;2022-10-17T02:41:32;0.47;;;0.47;;
6215;SDS011;3141;49.234;9.326;2022-10-17T02:42:16;0.85;;;0.85;;
6215;SDS011;3141;49.234;9.326;2022-10-17T02:43:00;0.77;;;0.77;;
6215;SDS011;3141;49.234;9.326;2022-10-17T02:43:43;0.87;;;0.67;;
6215;SDS011;3141;49.234;9.326;2022-10-17T02:44:28;0.70;;;0.70;;
6215;SDS011;3141;49.234;9.326;2022-10-17T02:45:12;0.82;;;0.70;;
6215;SDS011;3141;49.234;9.326;2022-10-17T02:45:56;0.82;;;0.77;;
6215;SDS011;3141;49.234;9.326;2022-10-17T02:46:39;1.00;;;0.93;;
6215;SDS011;3141;49.234;9.326;2022-10-17T02:47:28;0.50;;;0.47;;
6215;SDS011;3141;49.234;9.326;2022-10-17T02:48:58;0.90;;;0.90;;
6215;SDS011;3141;49.234;9.326;2022-10-17T02:49:26;0.70;;;0.70;;
6215;SDS011;3141;49.234;9.326;2022-10-17T02:50:12;0.30;;;0.30;;
6215;SDS011;3141;49.234;9.326;2022-10-17T02:52:14;0.60;;;0.60;;
6215;SDS011;3141;49.234;9.326;2022-10-17T02:53:04;0.70;;;0.63;;
6215;SDS011;3141;49.234;9.326;2022-10-17T02:53:53;0.77;;;0.77;;
6215;SDS011;3141;49.234;9.326;2022-10-17T02:54:53;0.38;;;0.38;;
6215;SDS011;3141;49.234;9.326;2022-10-17T02:55:47;0.82;;;0.68;;
6215;SDS011;3141;49.234;9.326;2022-10-17T02:56:36;0.52;;;0.52;;
6215;SDS011;3141;49.234;9.326;2022-10-17T02:57:30;0.57;;;0.57;;
6215;SDS011;3141;49.234;9.326;2022-10-17T02:58:19;0.90;;;0.90;;
6215;SDS011;3141;49.234;9.326;2022-10-17T02:59:06;0.40;;;0.40;;
6215;SDS011;3141;49.234;9.326;2022-10-17T02:59:53;0.50;;;0.50;;
6215;SDS011;3141;49.234;9.326;2022-10-17T03:00:39;1.17;;;1.08;;
6215;SDS011;3141;49.234;9.326;2022-10-17T03:01:23;0.63;;;0.63;;
6215;SDS011;3141;49.234;9.326;2022-10-17T03:02:06;0.73;;;0.73;;
6215;SDS011;3141;49.234;9.326;2022-10-17T03:02:49;0.77;;;0.63;;
6215;SDS011;3141;49.234;9.326;2022-10-17T03:03:33;1.20;;;0.40;;
6215;SDS011;3141;49.234;9.326;2022-10-17T03:04:15;0.60;;;0.60;;
6215;SDS011;3141;49.234;9.326;2022-10-17T03:04:59;0.98;;;0.95;;
6215;SDS011;3141;49.234;9.326;2022-10-17T03:05:41;14.77;;;1.03;;
6215;SDS011;3141;49.234;9.326;2022-10-17T03:06:23;1.37;;;0.80;;
6215;SDS011;3141;49.234;9.326;2022-10-17T03:07:06;1.07;;;0.53;;
6215;SDS011;3141;49.234;9.326;2022-10-17T03:07:48;1.23;;;0.80;;
6215;SDS011;3141;49.234;9.326;2022-10-17T03:08:31;0.70;;;0.70;;
6215;SDS011;3141;49.234;9.326;2022-10-17T03:09:13;0.60;;;0.50;;
6215;SDS011;3141;49.234;9.326;2022-10-17T03:09:56;1.23;;;0.63;;
6215;SDS011;3141;49.234;9.326;2022-10-17T03:10:38;0.53;;;0.53;;
6215;SDS011;3141;49.234;9.326;2022-10-17T03:11:21;0.80;;;0.80;;
6215;SDS011;3141;49.234;9.326;2022-10-17T03:12:03;1.07;;;1.07;;
6215;SDS011;3141;49.234;9.326;2022-10-17T03:12:46;5.20;;;1.15;;
6215;SDS011;3141;49.234;9.326;2022-10-17T03:13:29;0.70;;;0.70;;
6215;SDS011;3141;49.234;9.326;2022-10-17T03:14:11;1.40;;;1.07;;
6215;SDS011;3141;49.234;9.326;2022-10-17T03:14:53;0.50;;;0.50;;
6215;SDS011;3141;49.234;9.326;2022-10-17T03:15:36;1.27;;;0.83;;
6215;SDS011;3141;49.234;9.326;2022-10-17T03:16:18;0.53;;;0.53;;
6215;SDS011;3141;49.234;9.326;2022-10-17T03:17:00;0.73;;;0.73;;
6215;SDS011;3141;49.234;9.326;2022-10-17T03:17:43;0.63;;;0.60;;
6215;SDS011;3141;49.234;9.326;2022-10-17T03:18:25;0.50;;;0.50;;
6215;SDS011;3141;49.234;9.326;2022-10-17T03:19:07;1.80;;;0.63;;
6215;SDS011;3141;49.234;9.326;2022-10-17T03:19:50;0.70;;;0.70;;
6215;SDS011;3141;49.234;9.326;2022-10-17T03:20:32;0.47;;;0.47;;
6215;SDS011;3141;49.234;9.326;2022-10-17T03:21:15;0.67;;;0.67;;
6215;SDS011;3141;49.234;9.326;2022-10-17T03:21:57;0.60;;;0.60;;
6215;SDS011;3141;49.234;9.326;2022-10-17T03:22:39;0.80;;;0.80;;
6215;SDS011;3141;49.234;9.326;2022-10-17T03:23:22;2.00;;;0.80;;
6215;SDS011;3141;49.234;9.326;2022-10-17T03:24:04;0.37;;;0.37;;
6215;SDS011;3141;49.234;9.326;2022-10-17T03:24:46;0.60;;;0.60;;
6215;SDS011;3141;49.234;9.326;2022-10-17T03:25:29;0.80;;;0.80;;
6215;SDS011;3141;49.234;9.326;2022-10-17T03:26:11;8.17;;;0.70;;
6215;SDS011;3141;49.234;9.326;2022-10-17T03:26:54;0.77;;;0.47;;
6215;SDS011;3141;49.234;9.326;2022-10-17T03:27:36;0.50;;;0.50;;
6215;SDS011;3141;49.234;9.326;2022-10-17T03:28:18;0.57;;;0.57;;
6215;SDS011;3141;49.234;9.326;2022-10-17T03:29:00;0.60;;;0.60;;
6215;SDS011;3141;49.234;9.326;2022-10-17T03:29:43;0.60;;;0.60;;
6215;SDS011;3141;49.234;9.326;2022-10-17T03:30:25;0.63;;;0.63;;
6215;SDS011;3141;49.234;9.326;2022-10-17T03:31:09;1.23;;;0.85;;
6215;SDS011;3141;49.234;9.326;2022-10-17T03:31:52;0.50;;;0.50;;
6215;SDS011;3141;49.234;9.326;2022-10-17T03:32:34;0.70;;;0.70;;
6215;SDS011;3141;49.234;9.326;2022-10-17T03:33:17;1.13;;;1.10;;
6215;SDS011;3141;49.234;9.326;2022-10-17T03:34:00;0.87;;;0.87;;
6215;SDS011;3141;49.234;9.326;2022-10-17T03:34:43;0.52;;;0.50;;
6215;SDS011;3141;49.234;9.326;2022-10-17T03:35:25;2.27;;;0.90;;
6215;SDS011;3141;49.234;9.326;2022-10-17T03:36:09;4.43;;;0.60;;
6215;SDS011;3141;49.234;9.326;2022-10-17T03:36:54;0.50;;;0.50;;
6215;SDS011;3141;49.234;9.326;2022-10-17T03:37:36;0.67;;;0.67;;
6215;SDS011;3141;49.234;9.326;2022-10-17T03:38:18;0.57;;;0.57;;
6215;SDS011;3141;49.234;9.326;2022-10-17T03:39:01;0.63;;;0.57;;
6215;SDS011;3141;49.234;9.326;2022-10-17T03:39:43;0.50;;;0.50;;
6215;SDS011;3141;49.234;9.326;2022-10-17T03:40:25;0.90;;;0.77;;
6215;SDS011;3141;49.234;9.326;2022-10-17T03:41:08;0.67;;;0.67;;
6215;SDS011;3141;49.234;9.326;2022-10-17T03:41:51;1.02;;;0.98;;
6215;SDS011;3141;49.234;9.326;2022-10-17T03:42:33;1.43;;;0.93;;
6215;SDS011;3141;49.234;9.326;2022-10-17T03:43:15;0.97;;;0.97;;
6215;SDS011;3141;49.234;9.326;2022-10-17T03:43:57;0.83;;;0.73;;
6215;SDS011;3141;49.234;9.326;2022-10-17T03:44:40;1.07;;;0.97;;
6215;SDS011;3141;49.234;9.326;2022-10-17T03:45:22;1.90;;;0.80;;
6215;SDS011;3141;49.234;9.326;2022-10-17T03:46:05;0.60;;;0.60;;
6215;SDS011;3141;49.234;9.326;2022-10-17T03:46:48;0.80;;;0.80;;
6215;SDS011;3141;49.234;9.326;2022-10-17T03:47:30;0.70;;;0.70;;
6215;SDS011;3141;49.234;9.326;2022-10-17T03:48:12;0.90;;;0.90;;
6215;SDS011;3141;49.234;9.326;2022-10-17T03:48:55;0.97;;;0.97;;
6215;SDS011;3141;49.234;9.326;2022-10-17T03:49:37;0.77;;;0.77;;
6215;SDS011;3141;49.234;9.326;2022-10-17T03:50:19;0.80;;;0.80;;
6215;SDS011;3141;49.234;9.326;2022-10-17T03:51:03;0.87;;;0.67;;
6215;SDS011;3141;49.234;9.326;2022-10-17T03:51:47;1.60;;;1.08;;
6215;SDS011;3141;49.234;9.326;2022-10-17T03:52:30;0.60;;;0.60;;
6215;SDS011;3141;49.234;9.326;2022-10-17T03:53:12;1.00;;;0.87;;
6215;SDS011;3141;49.234;9.326;2022-10-17T03:53:54;1.00;;;0.67;;
6215;SDS011;3141;49.234;9.326;2022-10-17T03:54:36;0.97;;;0.80;;
6215;SDS011;3141;49.234;9.326;2022-10-17T03:55:19;4.70;;;1.13;;
6215;SDS011;3141;49.234;9.326;2022-10-17T03:56:11;0.90;;;0.90;;
6215;SDS011;3141;49.234;9.326;2022-10-17T03:57:02;2.63;;;1.02;;
6215;SDS011;3141;49.234;9.326;2022-10-17T03:57:44;0.60;;;0.60;;
6215;SDS011;3141;49.234;9.326;2022-10-17T03:58:26;0.73;;;0.73;;
6215;SDS011;3141;49.234;9.326;2022-10-17T03:59:13;0.75;;;0.63;;
6215;SDS011;3141;49.234;9.326;2022-10-17T03:59:56;0.70;;;0.70;;
6215;SDS011;3141;49.234;9.326;2022-10-17T04:00:38;0.77;;;0.73;;
6215;SDS011;3141;49.234;9.326;2022-10-17T04:01:21;0.50;;;0.50;;
6215;SDS011;3141;49.234;9.326;2022-10-17T04:02:04;0.93;;;0.80;;
6215;SDS011;3141;49.234;9.326;2022-10-17T04:02:46;0.60;;;0.60;;
6215;SDS011;3141;49.234;9.326;2022-10-17T04:03:28;0.70;;;0.70;;
6215;SDS011;3141;49.234;9.326;2022-10-17T04:04:11;0.77;;;0.77;;
6215;SDS011;3141;49.234;9.326;2022-10-17T04:04:53;0.67;;;0.67;;
6215;SDS011;3141;49.234;9.326;2022-10-17T04:05:35;0.60;;;0.57;;
6215;SDS011;3141;49.234;9.326;2022-10-17T04:06:18;0.90;;;0.63;;
6215;SDS011;3141;49.234;9.326;2022-10-17T04:07:01;1.13;;;0.60;;
6215;SDS011;3141;49.234;9.326;2022-10-17T04:07:44;0.63;;;0.63;;
6215;SDS011;3141;49.234;9.326;2022-10-17T04:08:26;0.63;;;0.60;;
6215;SDS011;3141;49.234;9.326;2022-10-17T04:09:09;7.77;;;1.13;;
6215;SDS011;3141;49.234;9.326;2022-10-17T04:09:52;0.70;;;0.70;;
6215;SDS011;3141;49.234;9.326;2022-10-17T04:10:34;0.77;;;0.70;;
6215;SDS011;3141;49.234;9.326;2022-10-17T04:11:18;0.60;;;0.60;;
6215;SDS011;3141;49.234;9.326;2022-10-17T04:12:02;0.82;;;0.82;;
6215;SDS011;3141;49.234;9.326;2022-10-17T04:12:44;0.73;;;0.73;;
6215;SDS011;3141;49.234;9.326;2022-10-17T04:13:27;1.00;;;0.80;;
6215;SDS011;3141;49.234;9.326;2022-10-17T04:14:10;0.97;;;0.87;;
6215;SDS011;3141;49.234;9.326;2022-10-17T04:14:52;0.53;;;0.53;;
6215;SDS011;3141;49.234;9.326;2022-10-17T04:15:34;0.70;;;0.67;;
6215;SDS011;3141;49.234;9.326;2022-10-17T04:16:17;0.63;;;0.63;;
6215;SDS011;3141;49.234;9.326;2022-10-17T04:16:59;6.63;;;1.00;;
6215;SDS011;3141;49.234;9.326;2022-10-17T04:17:41;11.67;;;1.00;;
6215;SDS011;3141;49.234;9.326;2022-10-17T04:18:23;0.93;;;0.83;;
6215;SDS011;3141;49.234;9.326;2022-10-17T04:19:06;1.07;;;0.93;;
6215;SDS011;3141;49.234;9.326;2022-10-17T04:19:48;0.90;;;0.90;;
6215;SDS011;3141;49.234;9.326;2022-10-17T04:20:31;0.97;;;0.97;;
6215;SDS011;3141;49.234;9.326;2022-10-17T04:21:16;0.82;;;0.82;;
6215;SDS011;3141;49.234;9.326;2022-10-17T04:21:59;0.60;;;0.60;;
6215;SDS011;3141;49.234;9.326;2022-10-17T04:22:41;0.93;;;0.87;;
6215;SDS011;3141;49.234;9.326;2022-10-17T04:23:23;1.23;;;1.03;;
6215;SDS011;3141;49.234;9.326;2022-10-17T04:24:08;0.70;;;0.70;;
6215;SDS011;3141;49.234;9.326;2022-10-17T04:24:52;1.15;;;1.00;;
6215;SDS011;3141;49.234;9.326;2022-10-17T04:25:35;3.57;;;1.00;;
6215;SDS011;3141;49.234;9.326;2022-10-17T04:26:17;1.10;;;1.10;;
6215;SDS011;3141;49.234;9.326;2022-10-17T04:27:00;0.80;;;0.80;;
6215;SDS011;3141;49.234;9.326;2022-10-17T04:27:42;1.10;;;1.03;;
6215;SDS011;3141;49.234;9.326;2022-10-17T04:28:25;3.60;;;1.07;;
6215;SDS011;3141;49.234;9.326;2022-10-17T04:29:08;0.70;;;0.70;;
6215;SDS011;3141;49.234;9.326;2022-10-17T04:29:51;1.67;;;1.17;;
6215;SDS011;3141;49.234;9.326;2022-10-17T04:30:33;5.63;;;0.87;;
6215;SDS011;3141;49.234;9.326;2022-10-17T04:31:15;2.30;;;0.93;;
6215;SDS011;3141;49.234;9.326;2022-10-17T04:31:58;1.53;;;0.90;;
6215;SDS011;3141;49.234;9.326;2022-10-17T04:32:40;0.90;;;0.90;;
6215;SDS011;3141;49.234;9.326;2022-10-17T04:33:22;2.73;;;0.73;;
6215;SDS011;3141;49.234;9.326;2022-10-17T04:34:05;1.10;;;0.67;;
6215;SDS011;3141;49.234;9.326;2022-10-17T04:34:48;0.70;;;0.70;;
6215;SDS011;3141;49.234;9.326;2022-10-17T04:35:31;0.90;;;0.90;;
6215;SDS011;3141;49.234;9.326;2022-10-17T04:36:14;1.70;;;0.73;;
6215;SDS011;3141;49.234;9.326;2022-10-17T04:36:58;0.77;;;0.77;;
6215;SDS011;3141;49.234;9.326;2022-10-17T04:37:40;0.63;;;0.63;;
6215;SDS011;3141;49.234;9.326;2022-10-17T04:38:23;0.60;;;0.60;;
6215;SDS011;3141;49.234;9.326;2022-10-17T04:39:05;0.50;;;0.50;;
6215;SDS011;3141;49.234;9.326;2022-10-17T04:39:48;0.90;;;0.90;;
6215;SDS011;3141;49.234;9.326;2022-10-17T04:40:30;0.80;;;0.80;;
6215;SDS011;3141;49.234;9.326;2022-10-17T04:41:13;1.00;;;1.00;;
6215;SDS011;3141;49.234;9.326;2022-10-17T04:41:57;4.75;;;0.68;;
6215;SDS011;3141;49.234;9.326;2022-10-17T04:42:40;0.60;;;0.60;;
6215;SDS011;3141;49.234;9.326;2022-10-17T04:43:22;0.67;;;0.67;;
6215;SDS011;3141;49.234;9.326;2022-10-17T04:44:04;0.43;;;0.43;;
6215;SDS011;3141;49.234;9.326;2022-10-17T04:44:47;2.23;;;1.00;;
6215;SDS011;3141;49.234;9.326;2022-10-17T04:45:29;0.60;;;0.60;;
6215;SDS011;3141;49.234;9.326;2022-10-17T04:46:12;1.13;;;1.03;;
6215;SDS011;3141;49.234;9.326;2022-10-17T04:46:55;0.85;;;0.85;;
6215;SDS011;3141;49.234;9.326;2022-10-17T04:47:38;1.37;;;1.17;;
6215;SDS011;3141;49.234;9.326;2022-10-17T04:48:20;0.70;;;0.70;;
6215;SDS011;3141;49.234;9.326;2022-10-17T04:49:02;0.90;;;0.90;;
6215;SDS011;3141;49.234;9.326;2022-10-17T04:49:45;0.80;;;0.80;;
6215;SDS011;3141;49.234;9.326;2022-10-17T04:50:27;6.50;;;1.17;;
6215;SDS011;3141;49.234;9.326;2022-10-17T04:51:10;12.03;;;1.30;;
6215;SDS011;3141;49.234;9.326;2022-10-17T04:51:54;2.30;;;1.58;;
6215;SDS011;3141;49.234;9.326;2022-10-17T04:52:37;1.40;;;0.83;;
6215;SDS011;3141;49.234;9.326;2022-10-17T04:53:19;1.00;;;1.00;;
6215;SDS011;3141;49.234;9.326;2022-10-17T04:54:02;3.13;;;1.30;;
6215;SDS011;3141;49.234;9.326;2022-10-17T04:54:44;0.87;;;0.73;;
6215;SDS011;3141;49.234;9.326;2022-10-17T04:55:27;1.53;;;1.43;;
6215;SDS011;3141;49.234;9.326;2022-10-17T04:56:10;0.70;;;0.70;;
6215;SDS011;3141;49.234;9.326;2022-10-17T04:56:55;1.50;;;1.40;;
6215;SDS011;3141;49.234;9.326;2022-10-17T04:57:37;1.10;;;1.03;;
6215;SDS011;3141;49.234;9.326;2022-10-17T04:58:19;3.30;;;1.47;;
6215;SDS011;3141;49.234;9.326;2022-10-17T04:59:05;2.20;;;1.90;;
6215;SDS011;3141;49.234;9.326;2022-10-17T04:59:47;5.00;;;1.80;;
6215;SDS011;3141;49.234;9.326;2022-10-17T05:00:30;2.27;;;1.67;;
6215;SDS011;3141;49.234;9.326;2022-10-17T05:01:13;3.40;;;2.20;;
6215;SDS011;3141;49.234;9.326;2022-10-17T05:01:57;3.70;;;2.38;;
6215;SDS011;3141;49.234;9.326;2022-10-17T05:02:40;3.17;;;1.63;;
6215;SDS011;3141;49.234;9.326;2022-10-17T05:03:22;6.93;;;2.83;;
6215;SDS011;3141;49.234;9.326;2022-10-17T05:04:04;5.47;;;3.17;;
6215;SDS011;3141;49.234;9.326;2022-10-17T05:04:46;3.03;;;1.93;;
6215;SDS011;3141;49.234;9.326;2022-10-17T05:05:29;5.77;;;2.60;;
6215;SDS011;3141;49.234;9.326;2022-10-17T05:06:15;4.03;;;2.33;;
6215;SDS011;3141;49.234;9.326;2022-10-17T05:06:59;4.25;;;2.20;;
6215;SDS011;3141;49.234;9.326;2022-10-17T05:07:41;3.00;;;2.10;;
6215;SDS011;3141;49.234;9.326;2022-10-17T05:08:23;2.23;;;1.70;;